Time;durP1;ratioP1;P1;durP2;ratioP2;P2;SDS_P1;SDS_P2;PMS_P1;PMS_P2;Temp;Humidity;BMP_temperature;BMP_pressure;BME280_temperature;BME280_humidity;BME280_pressure;Samples;Min_cycle;Max_cycle;Signal;HPM_P1;HPM_P2
2021/12/24 00:02:32;;;;;;;13.97;8.73;;;8.40;99.90;;;;;;5032444;28;20523;-73
2021/12/24 00:05:19;;;;;;;13.00;7.97;;;8.30;99.90;;;;;;5037514;28;20439;-72
2021/12/24 00:08:06;;;;;;;16.63;8.70;;;8.40;99.90;;;;;;5039555;28;20448;-73
2021/12/24 00:10:58;;;;;;;15.77;8.80;;;8.40;99.90;;;;;;5026799;28;20776;-72
2021/12/24 00:13:47;;;;;;;12.17;9.30;;;8.50;99.90;;;;;;5031902;28;20970;-73
2021/12/24 00:16:39;;;;;;;14.75;8.05;;;8.40;99.90;;;;;;5041381;28;20447;-72
2021/12/24 00:19:38;;;;;;;21.33;9.63;;;8.40;99.90;;;;;;5036322;28;20205;-73
2021/12/24 00:22:59;;;;;;;14.33;9.13;;;8.40;99.90;;;;;;5033726;28;20622;-73
2021/12/24 00:38:08;;;;;;;11.68;8.10;;;8.40;99.90;;;;;;5036296;28;20429;-72
2021/12/24 00:40:55;;;;;;;13.80;8.87;;;8.40;99.90;;;;;;5038336;28;20228;-72
2021/12/24 00:43:41;;;;;;;15.50;8.00;;;8.40;99.90;;;;;;5023232;28;20451;-72
2021/12/24 00:46:27;;;;;;;13.40;8.33;;;8.40;99.90;;;;;;5036675;28;20598;-73
2021/12/24 00:49:12;;;;;;;14.18;8.98;;;8.40;99.90;;;;;;5030299;28;20814;-72
2021/12/24 00:52:17;;;;;;;12.75;9.05;;;8.40;99.90;;;;;;5032682;28;20312;-72
2021/12/24 00:55:06;;;;;;;13.95;9.18;;;8.40;99.90;;;;;;5030059;28;20224;-72
2021/12/24 00:57:54;;;;;;;13.07;9.50;;;8.40;99.90;;;;;;5035038;28;20708;-73
2021/12/24 01:00:41;;;;;;;16.20;8.70;;;8.40;99.90;;;;;;5026386;28;20449;-73
2021/12/24 01:03:27;;;;;;;12.13;8.00;;;8.40;99.90;;;;;;5030666;28;20537;-73
2021/12/24 01:06:13;;;;;;;13.13;7.30;;;8.40;99.90;;;;;;5037963;28;22620;-73
2021/12/24 01:08:59;;;;;;;13.93;8.83;;;8.30;99.90;;;;;;5031419;28;20466;-72
2021/12/24 01:11:45;;;;;;;14.15;8.52;;;8.20;99.90;;;;;;5033945;28;20451;-73
2021/12/24 01:14:31;;;;;;;12.80;8.33;;;8.20;99.90;;;;;;5026295;28;20364;-72
2021/12/24 01:17:29;;;;;;;10.82;7.82;;;8.20;99.90;;;;;;5026618;28;20597;-73
2021/12/24 01:20:24;;;;;;;10.38;7.53;;;8.20;99.90;;;;;;5042027;28;20198;-73
2021/12/24 01:23:31;;;;;;;9.70;7.30;;;8.30;99.90;;;;;;5020124;28;20713;-72
2021/12/24 01:26:22;;;;;;;14.50;8.47;;;8.30;99.90;;;;;;5031055;28;20236;-72
2021/12/24 01:38:38;;;;;;;13.13;8.20;;;8.50;99.90;;;;;;5030619;28;20450;-73
2021/12/24 01:44:27;;;;;;;13.80;7.95;;;8.60;99.90;;;;;;5030573;28;20682;-73
2021/12/24 01:47:13;;;;;;;14.47;7.50;;;8.60;99.90;;;;;;5028612;28;20225;-73
2021/12/24 01:49:58;;;;;;;16.13;7.07;;;8.60;99.90;;;;;;5034444;28;20443;-73
2021/12/24 01:52:44;;;;;;;15.57;8.20;;;8.60;99.90;;;;;;5026889;28;20460;-73
2021/12/24 01:55:30;;;;;;;11.57;6.60;;;8.60;99.90;;;;;;5030570;28;20831;-73
2021/12/24 01:58:19;;;;;;;11.02;7.18;;;8.60;99.90;;;;;;5036683;28;20450;-73
2021/12/24 02:01:06;;;;;;;9.97;6.57;;;8.50;99.90;;;;;;5021774;28;20209;-74
2021/12/24 02:03:52;;;;;;;13.37;7.47;;;8.50;99.90;;;;;;5025154;28;20420;-73
2021/12/24 02:06:37;;;;;;;14.07;7.63;;;8.60;99.90;;;;;;5038299;28;20475;-73
2021/12/24 02:09:23;;;;;;;13.20;8.40;;;8.60;99.90;;;;;;5027312;28;20804;-73
2021/12/24 02:12:10;;;;;;;12.00;7.60;;;8.60;99.90;;;;;;5032385;28;20422;-73
2021/12/24 02:14:58;;;;;;;12.57;8.10;;;8.60;99.90;;;;;;5029038;28;20554;-73
2021/12/24 02:30:05;;;;;;;10.23;8.00;;;8.70;99.90;;;;;;5027796;28;20452;-73
2021/12/24 02:32:51;;;;;;;11.20;7.47;;;8.70;99.90;;;;;;5030301;28;20433;-73
2021/12/24 02:35:37;;;;;;;14.07;8.07;;;8.70;99.90;;;;;;5027833;28;20485;-73
2021/12/24 02:38:24;;;;;;;10.60;7.77;;;8.80;99.90;;;;;;5033159;28;20443;-73
2021/12/24 02:41:11;;;;;;;14.18;8.02;;;8.70;99.90;;;;;;5027271;28;20448;-73
2021/12/24 02:43:57;;;;;;;11.33;7.47;;;8.70;99.90;;;;;;5025456;28;20205;-73
2021/12/24 02:47:05;;;;;;;13.10;7.90;;;8.80;99.90;;;;;;5043486;28;20442;-72
2021/12/24 02:55:56;;;;;;;14.43;8.23;;;8.80;99.90;;;;;;5038277;28;20534;-72
2021/12/24 02:58:44;;;;;;;11.60;7.70;;;8.80;99.90;;;;;;5028791;28;20451;-72
2021/12/24 03:01:33;;;;;;;13.83;8.60;;;8.80;99.90;;;;;;5036193;28;20452;-72
2021/12/24 03:04:19;;;;;;;11.20;7.40;;;8.90;99.90;;;;;;5030632;28;20892;-72
2021/12/24 03:07:06;;;;;;;15.10;8.00;;;8.90;99.90;;;;;;5038797;28;20484;-72
2021/12/24 03:09:51;;;;;;;12.67;8.40;;;9.00;99.90;;;;;;5043598;28;20451;-72
2021/12/24 03:12:39;;;;;;;12.83;8.10;;;8.90;99.90;;;;;;5031947;28;20460;-73
2021/12/24 03:15:25;;;;;;;10.90;7.50;;;9.00;99.90;;;;;;5038879;28;20990;-73
2021/12/24 03:18:11;;;;;;;12.63;7.97;;;9.00;99.90;;;;;;5043732;28;20447;-73
2021/12/24 03:21:04;;;;;;;13.70;7.63;;;9.00;99.90;;;;;;5031553;28;20442;-72
2021/12/24 03:26:50;;;;;;;15.80;9.03;;;9.00;99.90;;;;;;5034466;28;20486;-73
2021/12/24 03:29:37;;;;;;;17.80;7.40;;;9.00;99.90;;;;;;5031967;28;20990;-73
2021/12/24 03:32:23;;;;;;;9.70;7.20;;;9.00;99.90;;;;;;5026693;28;20419;-72
2021/12/24 03:35:09;;;;;;;12.97;8.17;;;9.10;99.90;;;;;;5021973;28;20476;-72
2021/12/24 03:37:55;;;;;;;9.50;7.50;;;9.00;99.90;;;;;;5031591;28;20448;-73
2021/12/24 03:40:41;;;;;;;11.10;7.90;;;9.00;99.90;;;;;;5031414;28;20464;-73
2021/12/24 03:43:26;;;;;;;12.50;8.00;;;8.90;99.90;;;;;;5029476;28;20444;-72
2021/12/24 03:46:17;;;;;;;13.07;7.43;;;8.90;99.90;;;;;;5034478;28;20986;-72
2021/12/24 03:49:07;;;;;;;10.13;7.53;;;8.90;99.90;;;;;;5035530;28;20503;-73
2021/12/24 03:51:58;;;;;;;9.57;7.70;;;8.90;99.90;;;;;;5032297;28;20582;-72
2021/12/24 03:54:56;;;;;;;11.80;8.03;;;8.90;99.90;;;;;;5037325;28;20833;-70
2021/12/24 03:57:43;;;;;;;10.60;7.20;;;8.90;99.90;;;;;;5031559;28;20478;-72
2021/12/24 04:00:31;;;;;;;16.40;7.20;;;8.90;99.90;;;;;;5037432;28;20455;-72
2021/12/24 04:03:19;;;;;;;14.43;7.87;;;8.90;99.90;;;;;;5032569;28;21186;-72
2021/12/24 04:06:04;;;;;;;12.57;8.70;;;8.90;99.90;;;;;;5031894;28;20484;-73
2021/12/24 04:08:50;;;;;;;14.17;7.73;;;8.90;99.90;;;;;;5031696;28;20546;-73
2021/12/24 04:11:38;;;;;;;9.70;7.33;;;8.90;99.90;;;;;;5033857;28;20525;-72
2021/12/24 04:14:23;;;;;;;11.80;7.70;;;8.90;99.90;;;;;;5031944;28;20463;-72
2021/12/24 04:17:09;;;;;;;9.60;8.27;;;8.90;99.90;;;;;;5025223;28;20879;-73
2021/12/24 04:26:02;;;;;;;16.63;7.83;;;8.90;99.90;;;;;;5036231;28;20545;-72
2021/12/24 04:28:48;;;;;;;11.10;8.07;;;8.80;99.90;;;;;;5032507;28;20507;-72
2021/12/24 04:31:41;;;;;;;12.20;7.87;;;8.80;99.90;;;;;;5029358;28;20427;-72
2021/12/24 04:34:32;;;;;;;18.77;8.30;;;8.90;99.90;;;;;;5031488;28;20603;-72
2021/12/24 04:53:08;;;;;;;10.20;7.50;;;8.80;99.90;;;;;;5025144;28;20498;-72
2021/12/24 05:02:14;;;;;;;13.77;8.30;;;8.80;99.90;;;;;;5026756;28;20249;-71
2021/12/24 05:05:02;;;;;;;12.50;7.83;;;8.70;99.90;;;;;;5031761;28;20444;-71
2021/12/24 05:11:01;;;;;;;10.47;8.87;;;8.70;99.90;;;;;;5031457;28;20509;-71
2021/12/24 05:13:48;;;;;;;13.93;9.13;;;8.70;99.90;;;;;;5038283;28;20427;-72
2021/12/24 05:16:44;;;;;;;10.05;7.75;;;8.70;99.90;;;;;;5029546;28;20538;-71
2021/12/24 05:22:33;;;;;;;12.90;8.47;;;8.70;99.90;;;;;;5026839;28;20188;-72
2021/12/24 05:25:21;;;;;;;10.30;7.83;;;8.70;99.90;;;;;;5037058;28;20440;-72
2021/12/24 05:28:06;;;;;;;17.60;8.60;;;8.70;99.90;;;;;;5035381;28;21024;-72
2021/12/24 05:30:52;;;;;;;15.50;8.60;;;8.70;99.90;;;;;;5024843;28;20777;-72
2021/12/24 05:33:37;;;;;;;17.20;8.87;;;8.80;99.90;;;;;;5032895;28;20205;-71
2021/12/24 05:36:23;;;;;;;12.40;8.80;;;8.70;99.90;;;;;;5037281;28;20542;-71
2021/12/24 05:39:10;;;;;;;11.60;8.17;;;8.60;99.90;;;;;;5029435;28;21021;-71
2021/12/24 05:41:57;;;;;;;12.10;8.52;;;8.60;99.90;;;;;;5034054;28;20491;-71
2021/12/24 05:44:43;;;;;;;12.73;8.77;;;8.60;99.90;;;;;;5045543;28;20340;-71
2021/12/24 05:47:28;;;;;;;13.57;9.15;;;8.60;99.90;;;;;;5034137;28;20584;-71
2021/12/24 05:50:14;;;;;;;13.02;8.35;;;8.60;99.90;;;;;;5024501;28;20616;-71
2021/12/24 05:53:00;;;;;;;10.40;8.00;;;8.60;99.90;;;;;;5028251;28;20209;-71
2021/12/24 05:55:45;;;;;;;12.23;8.50;;;8.60;99.90;;;;;;5023294;28;20803;-71
2021/12/24 05:58:32;;;;;;;11.00;8.63;;;8.60;99.90;;;;;;5028351;28;20445;-71
2021/12/24 06:01:17;;;;;;;13.63;9.23;;;8.50;99.90;;;;;;5031117;28;20766;-71
2021/12/24 06:04:03;;;;;;;13.77;9.00;;;8.60;99.90;;;;;;5038809;28;20572;-71
2021/12/24 06:06:49;;;;;;;13.20;9.10;;;8.60;99.90;;;;;;5028084;28;20479;-71
2021/12/24 06:09:34;;;;;;;14.43;10.07;;;8.50;99.90;;;;;;5028011;28;20472;-71
2021/12/24 06:12:20;;;;;;;14.50;9.97;;;8.50;99.90;;;;;;5034457;28;20576;-71
2021/12/24 06:15:09;;;;;;;18.73;9.70;;;8.50;99.90;;;;;;5038041;28;20468;-71
2021/12/24 06:17:57;;;;;;;14.57;9.67;;;8.60;99.90;;;;;;5031885;28;20587;-71
2021/12/24 06:20:43;;;;;;;14.33;9.70;;;8.60;99.90;;;;;;5034997;28;20592;-71
2021/12/24 06:23:28;;;;;;;16.87;11.60;;;8.60;99.90;;;;;;5035937;28;20484;-71
2021/12/24 06:26:14;;;;;;;17.30;10.30;;;8.60;99.90;;;;;;5033876;28;20441;-71
2021/12/24 06:28:59;;;;;;;17.97;10.57;;;8.60;99.90;;;;;;5025222;28;20495;-73
2021/12/24 06:31:46;;;;;;;16.27;10.45;;;8.60;99.90;;;;;;5031225;28;20463;-71
2021/12/24 06:34:32;;;;;;;15.48;10.43;;;8.60;99.90;;;;;;5036763;28;20488;-71
2021/12/24 06:37:18;;;;;;;17.80;12.20;;;8.50;99.90;;;;;;5033560;28;20244;-71
2021/12/24 06:40:05;;;;;;;16.60;11.13;;;8.50;99.90;;;;;;5028523;28;20439;-72
2021/12/24 06:42:51;;;;;;;16.42;10.00;;;8.50;99.90;;;;;;5028173;28;21160;-71
2021/12/24 06:45:36;;;;;;;14.00;9.80;;;8.50;99.90;;;;;;5029820;28;20276;-72
2021/12/24 06:48:23;;;;;;;18.17;11.63;;;8.50;99.90;;;;;;5031001;28;20456;-72
2021/12/24 06:51:09;;;;;;;18.20;11.33;;;8.50;99.90;;;;;;5034041;28;20463;-70
2021/12/24 06:53:55;;;;;;;15.97;10.53;;;8.50;99.90;;;;;;5037858;28;20582;-73
2021/12/24 06:56:41;;;;;;;16.63;11.17;;;8.50;99.90;;;;;;5024560;28;20477;-72
2021/12/24 06:59:27;;;;;;;18.77;11.00;;;8.50;99.90;;;;;;5019063;28;20796;-74
2021/12/24 07:02:12;;;;;;;22.53;10.83;;;8.50;99.90;;;;;;5031761;28;20441;-74
2021/12/24 07:04:59;;;;;;;15.80;10.00;;;8.60;99.90;;;;;;5030304;28;20448;-73
2021/12/24 07:07:45;;;;;;;17.07;9.67;;;8.60;99.90;;;;;;5022171;28;20483;-73
2021/12/24 07:10:31;;;;;;;17.92;11.32;;;8.60;99.90;;;;;;5033503;28;20473;-74
2021/12/24 07:13:16;;;;;;;57.25;29.00;;;8.60;99.90;;;;;;5031966;28;20206;-74
2021/12/24 07:16:02;;;;;;;57.00;26.07;;;8.50;99.90;;;;;;5025672;28;20233;-74
2021/12/24 07:18:48;;;;;;;22.13;12.80;;;8.50;99.90;;;;;;5020291;28;21039;-73
2021/12/24 07:21:35;;;;;;;21.02;11.38;;;8.50;99.90;;;;;;5027126;28;20517;-73
2021/12/24 07:24:21;;;;;;;24.10;13.47;;;8.50;99.90;;;;;;5037122;28;20216;-73
2021/12/24 07:27:07;;;;;;;26.10;15.37;;;8.50;99.90;;;;;;5024756;28;20465;-73
2021/12/24 07:29:53;;;;;;;21.80;11.65;;;8.50;99.90;;;;;;5020487;28;20587;-72
2021/12/24 07:32:41;;;;;;;21.77;13.30;;;8.50;99.90;;;;;;5027317;28;20208;-73
2021/12/24 07:35:27;;;;;;;42.37;20.40;;;8.50;99.90;;;;;;5028437;28;20471;-73
2021/12/24 07:38:14;;;;;;;65.50;38.08;;;8.50;99.90;;;;;;5032854;28;20452;-73
2021/12/24 07:41:01;;;;;;;92.93;45.35;;;8.40;99.90;;;;;;5038362;28;20206;-73
2021/12/24 07:43:46;;;;;;;40.58;24.25;;;8.50;99.90;;;;;;5027351;28;20201;-73
2021/12/24 07:46:38;;;;;;;34.17;14.43;;;8.40;99.90;;;;;;5030756;28;20580;-73
2021/12/24 07:49:33;;;;;;;19.23;13.20;;;8.40;99.90;;;;;;5028849;28;20785;-74
2021/12/24 07:52:18;;;;;;;22.63;13.20;;;8.40;99.90;;;;;;5029506;28;20475;-73
2021/12/24 07:55:09;;;;;;;28.53;15.57;;;8.60;99.90;;;;;;5043774;28;20456;-74
2021/12/24 07:57:54;;;;;;;28.10;14.60;;;8.60;99.90;;;;;;5026263;28;20432;-73
2021/12/24 08:00:41;;;;;;;52.37;23.30;;;8.60;99.90;;;;;;5028219;28;20497;-73
2021/12/24 08:03:27;;;;;;;31.57;15.33;;;8.60;99.90;;;;;;5028001;28;20460;-73
2021/12/24 08:06:13;;;;;;;45.67;22.30;;;8.60;99.90;;;;;;5025606;28;21049;-74
2021/12/24 08:08:59;;;;;;;47.43;23.20;;;8.60;99.90;;;;;;5027736;28;20484;-74
2021/12/24 08:11:46;;;;;;;54.03;24.75;;;8.60;99.90;;;;;;5031289;28;20543;-73
2021/12/24 08:14:31;;;;;;;37.67;22.53;;;8.60;99.90;;;;;;5042365;28;20255;-73
2021/12/24 08:17:17;;;;;;;30.40;14.40;;;8.60;99.90;;;;;;5020855;28;21000;-73
2021/12/24 08:20:04;;;;;;;16.10;11.10;;;8.60;99.90;;;;;;5033428;28;20439;-73
2021/12/24 08:22:51;;;;;;;25.17;14.03;;;8.60;99.90;;;;;;5040537;28;20436;-74
2021/12/24 08:25:37;;;;;;;19.80;12.20;;;8.60;99.90;;;;;;5030939;28;20532;-73
2021/12/24 08:28:24;;;;;;;18.77;12.33;;;8.60;99.90;;;;;;5021986;28;20484;-74
2021/12/24 08:31:10;;;;;;;23.50;12.17;;;8.60;99.90;;;;;;5028602;28;20539;-74
2021/12/24 08:33:55;;;;;;;21.33;11.07;;;8.60;99.90;;;;;;5028759;28;20938;-73
2021/12/24 08:36:41;;;;;;;19.47;12.30;;;8.60;99.90;;;;;;5029573;28;20484;-73
2021/12/24 08:39:27;;;;;;;19.80;12.70;;;8.60;99.90;;;;;;5032306;28;20470;-74
2021/12/24 08:42:13;;;;;;;17.42;11.88;;;8.60;99.90;;;;;;5027569;28;20475;-73
2021/12/24 08:44:59;;;;;;;20.70;11.20;;;8.50;99.90;;;;;;5032067;28;20209;-74
2021/12/24 08:47:45;;;;;;;20.17;10.10;;;8.50;99.90;;;;;;5026919;28;20468;-73
2021/12/24 08:50:31;;;;;;;16.37;11.20;;;8.50;99.90;;;;;;5030045;28;20522;-73
2021/12/24 08:53:16;;;;;;;21.63;11.07;;;8.50;99.90;;;;;;5027042;28;20494;-73
2021/12/24 08:56:03;;;;;;;15.93;11.07;;;8.60;99.90;;;;;;5029838;28;20603;-73
2021/12/24 08:58:48;;;;;;;14.40;11.10;;;8.60;99.90;;;;;;5030345;28;20977;-73
2021/12/24 09:01:35;;;;;;;20.03;11.40;;;8.60;99.90;;;;;;5027315;28;20463;-73
2021/12/24 09:04:22;;;;;;;18.50;11.13;;;8.60;99.90;;;;;;5029124;28;20452;-73
2021/12/24 09:07:07;;;;;;;15.87;9.80;;;8.60;99.90;;;;;;5023791;28;20476;-73
2021/12/24 09:09:54;;;;;;;18.80;10.77;;;8.60;99.90;;;;;;5034164;28;20987;-73
2021/12/24 09:12:42;;;;;;;21.00;10.40;;;8.60;99.90;;;;;;5036340;28;20590;-74
2021/12/24 09:15:30;;;;;;;15.53;11.43;;;8.60;99.90;;;;;;5037552;28;20497;-73
2021/12/24 09:18:19;;;;;;;15.60;10.70;;;8.70;99.90;;;;;;5025318;28;20478;-73
2021/12/24 09:21:12;;;;;;;14.43;10.50;;;8.70;99.90;;;;;;5031455;28;20452;-73
2021/12/24 09:23:58;;;;;;;14.10;10.60;;;8.70;99.90;;;;;;5037935;28;20953;-73
2021/12/24 09:26:45;;;;;;;17.50;11.23;;;8.60;99.90;;;;;;5020680;28;20480;-73
2021/12/24 09:29:30;;;;;;;13.67;10.07;;;8.70;99.90;;;;;;5020913;28;20856;-73
2021/12/24 09:32:16;;;;;;;21.80;11.53;;;8.70;99.90;;;;;;5025107;28;20495;-73
2021/12/24 09:35:04;;;;;;;17.70;11.03;;;8.70;99.90;;;;;;5029456;28;20966;-73
2021/12/24 09:37:50;;;;;;;16.00;11.70;;;8.70;99.90;;;;;;5032988;28;20454;-72
2021/12/24 09:40:35;;;;;;;15.40;11.38;;;8.70;99.90;;;;;;5032271;28;20451;-72
2021/12/24 09:43:21;;;;;;;19.53;11.10;;;8.70;99.90;;;;;;5033454;28;20203;-72
2021/12/24 09:46:06;;;;;;;19.33;11.57;;;8.70;99.90;;;;;;5029278;28;20487;-72
2021/12/24 09:48:52;;;;;;;20.03;10.80;;;8.80;99.90;;;;;;5032947;28;20530;-71
2021/12/24 09:51:44;;;;;;;25.73;12.57;;;8.80;99.90;;;;;;5026745;28;20444;-71
2021/12/24 09:54:29;;;;;;;18.40;10.93;;;8.80;99.90;;;;;;5031651;28;20204;-71
2021/12/24 09:57:16;;;;;;;21.60;12.60;;;8.80;99.90;;;;;;5035611;28;20500;-71
2021/12/24 10:00:01;;;;;;;21.13;12.20;;;8.80;99.90;;;;;;5031751;28;20446;-71
2021/12/24 10:02:51;;;;;;;21.90;12.33;;;8.80;99.90;;;;;;5031396;28;20535;-71
2021/12/24 10:05:39;;;;;;;20.43;11.30;;;8.80;99.90;;;;;;5026363;28;20612;-71
2021/12/24 10:08:27;;;;;;;18.87;11.67;;;8.80;99.90;;;;;;5037966;28;20440;-71
2021/12/24 10:11:15;;;;;;;19.37;11.77;;;8.90;99.90;;;;;;5030444;28;20449;-71
2021/12/24 10:14:05;;;;;;;16.70;11.00;;;8.80;99.90;;;;;;5029556;28;20439;-71
2021/12/24 10:16:54;;;;;;;19.13;12.67;;;8.80;99.90;;;;;;5026843;28;20496;-71
2021/12/24 10:19:47;;;;;;;17.47;11.60;;;8.80;99.90;;;;;;5024303;28;20522;-71
2021/12/24 10:22:43;;;;;;;23.63;12.87;;;8.80;99.90;;;;;;5028035;28;20468;-71
2021/12/24 10:25:30;;;;;;;19.53;11.90;;;8.80;99.90;;;;;;5028745;28;20589;-71
2021/12/24 10:28:16;;;;;;;16.13;11.33;;;8.80;99.90;;;;;;5030861;28;20517;-70
2021/12/24 10:31:02;;;;;;;18.60;12.33;;;8.80;99.90;;;;;;5033970;28;20827;-71
2021/12/24 10:34:21;;;;;;;17.23;10.93;;;8.80;99.90;;;;;;5031294;28;20855;-71
2021/12/24 10:37:22;;;;;;;17.50;10.60;;;8.80;99.90;;;;;;5023926;28;20476;-71
2021/12/24 10:40:10;;;;;;;16.10;11.57;;;8.80;99.90;;;;;;5039517;28;20807;-71
2021/12/24 10:42:57;;;;;;;21.00;12.40;;;8.80;99.90;;;;;;5027864;28;20417;-71
2021/12/24 10:45:45;;;;;;;17.63;10.97;;;8.80;99.90;;;;;;5036808;28;20429;-71
2021/12/24 10:48:30;;;;;;;21.13;10.80;;;8.80;99.90;;;;;;5024774;28;20781;-72
2021/12/24 10:51:22;;;;;;;18.80;11.40;;;8.80;99.90;;;;;;5033784;28;20443;-71
2021/12/24 10:54:08;;;;;;;21.73;11.87;;;8.80;99.90;;;;;;5035599;28;20418;-73
2021/12/24 10:56:55;;;;;;;19.03;12.20;;;8.80;99.90;;;;;;5026846;28;20558;-73
2021/12/24 10:59:43;;;;;;;19.33;11.88;;;8.80;99.90;;;;;;5026849;28;20460;-73
2021/12/24 11:02:30;;;;;;;18.13;11.00;;;8.80;99.90;;;;;;5028795;28;20202;-73
2021/12/24 11:05:28;;;;;;;18.37;11.93;;;8.80;99.90;;;;;;5023610;28;20579;-73
2021/12/24 11:08:16;;;;;;;19.73;12.00;;;8.80;99.90;;;;;;5030951;28;20452;-74
2021/12/24 11:11:04;;;;;;;23.50;13.03;;;8.80;99.90;;;;;;5034421;28;20451;-73
2021/12/24 11:13:52;;;;;;;18.97;11.17;;;8.90;99.90;;;;;;5036488;28;20508;-75
2021/12/24 11:16:46;;;;;;;20.20;12.00;;;8.80;99.90;;;;;;5024640;28;20992;-74
2021/12/24 11:19:51;;;;;;;19.27;11.20;;;8.80;99.90;;;;;;5023183;28;21048;-73
2021/12/24 11:22:56;;;;;;;24.70;11.33;;;8.80;99.90;;;;;;5029591;28;20456;-73
2021/12/24 11:25:44;;;;;;;17.57;11.70;;;8.90;99.90;;;;;;5034251;28;20423;-73
2021/12/24 11:28:32;;;;;;;15.77;10.65;;;8.90;99.90;;;;;;5025342;28;20540;-73
2021/12/24 11:31:20;;;;;;;22.50;13.27;;;8.90;99.90;;;;;;5032582;28;20599;-73
2021/12/24 11:34:08;;;;;;;15.30;11.67;;;8.90;99.90;;;;;;5025150;28;20448;-73
2021/12/24 11:36:53;;;;;;;22.85;11.48;;;8.90;99.90;;;;;;5026089;28;20528;-73
2021/12/24 11:39:39;;;;;;;18.17;12.00;;;8.90;99.90;;;;;;5036296;28;20208;-73
2021/12/24 11:42:28;;;;;;;17.57;11.00;;;8.90;99.90;;;;;;5025523;28;20453;-73
2021/12/24 11:45:14;;;;;;;19.27;11.57;;;9.00;99.90;;;;;;5034200;28;20414;-73
2021/12/24 11:48:01;;;;;;;24.03;11.17;;;8.90;99.90;;;;;;5041973;28;20443;-73
2021/12/24 11:50:48;;;;;;;21.90;11.40;;;8.90;99.90;;;;;;5033420;28;20566;-73
2021/12/24 11:53:35;;;;;;;23.80;12.17;;;8.90;99.90;;;;;;5035587;28;20546;-73
2021/12/24 11:56:22;;;;;;;17.50;11.07;;;8.90;99.90;;;;;;5027241;28;20586;-74
2021/12/24 11:59:08;;;;;;;16.53;9.83;;;8.90;99.90;;;;;;5033013;28;20437;-74
2021/12/24 12:01:53;;;;;;;22.20;12.17;;;8.90;99.90;;;;;;5028402;28;20433;-74
2021/12/24 12:04:38;;;;;;;17.60;11.07;;;8.90;99.90;;;;;;5027139;28;20441;-73
2021/12/24 12:07:25;;;;;;;19.73;12.07;;;8.90;99.90;;;;;;5032203;28;20483;-74
2021/12/24 12:10:11;;;;;;;25.10;11.77;;;9.00;99.90;;;;;;5029706;28;20499;-74
2021/12/24 12:12:57;;;;;;;17.23;10.57;;;8.90;99.90;;;;;;5032581;28;20802;-72
2021/12/24 12:15:57;;;;;;;23.30;12.60;;;8.90;99.90;;;;;;5028831;28;20448;-74
2021/12/24 12:22:17;;;;;;;17.37;11.50;;;8.90;99.90;;;;;;5032750;28;20764;-74
2021/12/24 12:25:09;;;;;;;19.40;10.63;;;8.90;99.90;;;;;;5029346;28;20443;-73
2021/12/24 12:27:56;;;;;;;16.67;10.00;;;8.90;99.90;;;;;;5030772;28;20628;-73
2021/12/24 12:30:48;;;;;;;20.10;11.70;;;8.90;99.90;;;;;;5033813;28;20451;-72
2021/12/24 12:33:35;;;;;;;15.67;10.33;;;8.90;99.90;;;;;;5022788;28;20419;-74
2021/12/24 12:36:40;;;;;;;18.90;11.30;;;8.90;99.90;;;;;;5031869;28;20450;-73
2021/12/24 12:39:29;;;;;;;20.10;11.13;;;8.90;99.90;;;;;;5031751;28;20817;-73
2021/12/24 12:42:17;;;;;;;14.50;9.30;;;8.90;99.90;;;;;;5031254;28;20497;-73
2021/12/24 12:45:04;;;;;;;15.13;9.70;;;8.90;99.90;;;;;;5023861;28;21712;-73
2021/12/24 12:47:53;;;;;;;15.77;10.37;;;8.90;99.90;;;;;;5027036;28;20469;-73
2021/12/24 12:50:50;;;;;;;18.73;11.50;;;8.90;99.90;;;;;;5029347;28;20416;-73
2021/12/24 12:53:40;;;;;;;22.17;11.30;;;8.90;99.90;;;;;;5027855;28;20443;-73
2021/12/24 12:56:29;;;;;;;15.93;10.47;;;9.00;99.90;;;;;;5029332;28;20453;-73
2021/12/24 12:59:21;;;;;;;14.73;9.53;;;9.00;99.90;;;;;;5025337;28;20500;-73
2021/12/24 13:02:07;;;;;;;16.10;9.20;;;9.00;99.90;;;;;;5034728;28;20548;-73
2021/12/24 13:05:11;;;;;;;14.00;9.40;;;9.00;99.90;;;;;;5026602;28;20554;-73
2021/12/24 13:08:00;;;;;;;11.00;7.20;;;9.00;99.90;;;;;;5033684;28;20425;-73
2021/12/24 13:10:56;;;;;;;10.37;7.63;;;9.00;99.90;;;;;;5031543;28;20452;-74
2021/12/24 13:13:52;;;;;;;10.80;7.97;;;9.10;99.90;;;;;;5027219;28;20427;-73
2021/12/24 13:16:45;;;;;;;11.50;8.17;;;9.10;99.90;;;;;;5027238;28;20440;-73
2021/12/24 13:19:56;;;;;;;11.27;7.50;;;9.10;99.90;;;;;;5028803;28;20816;-73
2021/12/24 13:22:38;;;;;;;10.50;7.30;;;9.10;99.90;;;;;;5017144;28;20475;-73
2021/12/24 13:25:25;;;;;;;9.63;6.87;;;9.00;99.90;;;;;;5029268;28;20470;-73
2021/12/24 13:28:10;;;;;;;9.00;7.27;;;9.10;99.90;;;;;;5039377;28;20441;-73
2021/12/24 13:30:56;;;;;;;13.90;8.27;;;9.10;99.90;;;;;;5031926;28;20539;-73
2021/12/24 13:33:46;;;;;;;13.60;8.77;;;9.10;99.90;;;;;;5023416;28;21095;-73
2021/12/24 13:36:32;;;;;;;9.60;8.03;;;9.10;99.90;;;;;;5031125;28;20816;-73
2021/12/24 13:39:19;;;;;;;11.10;8.33;;;9.10;99.90;;;;;;5032375;28;20395;-73
2021/12/24 13:42:08;;;;;;;13.10;7.83;;;9.00;99.90;;;;;;5026456;28;20515;-72
2021/12/24 13:45:00;;;;;;;8.87;7.80;;;9.10;99.90;;;;;;5028996;28;21154;-74
2021/12/24 13:47:55;;;;;;;10.67;7.60;;;9.10;99.90;;;;;;5028561;28;20456;-74
2021/12/24 13:56:53;;;;;;;8.60;7.23;;;9.10;99.90;;;;;;5039707;28;20821;-75
2021/12/24 13:59:40;;;;;;;9.60;7.90;;;9.10;99.90;;;;;;5028029;28;20455;-74
2021/12/24 14:02:26;;;;;;;8.53;6.53;;;9.10;99.90;;;;;;5025279;28;20445;-75
2021/12/24 14:05:12;;;;;;;8.97;7.27;;;9.10;99.90;;;;;;5024939;28;20464;-75
2021/12/24 14:08:08;;;;;;;9.47;7.37;;;9.10;99.90;;;;;;5041658;22;20520;-75
2021/12/24 14:11:07;;;;;;;8.47;6.70;;;9.10;99.90;;;;;;5016370;28;20742;-75
2021/12/24 14:13:58;;;;;;;13.43;7.53;;;9.10;99.90;;;;;;5033369;28;20452;-75
2021/12/24 14:16:58;;;;;;;11.40;7.70;;;9.10;99.90;;;;;;5036113;28;21001;-75
2021/12/24 14:19:50;;;;;;;11.20;9.00;;;9.10;99.90;;;;;;5023813;28;20474;-75
2021/12/24 14:22:36;;;;;;;14.40;9.40;;;9.10;99.90;;;;;;5030863;28;20527;-75
2021/12/24 14:25:23;;;;;;;13.30;9.33;;;9.10;99.90;;;;;;5021963;28;20443;-75
2021/12/24 14:28:17;;;;;;;14.20;9.33;;;9.10;99.90;;;;;;5029907;28;20466;-76
2021/12/24 14:31:04;;;;;;;14.40;7.50;;;9.10;99.90;;;;;;5026455;28;20499;-75
2021/12/24 14:33:50;;;;;;;10.67;7.80;;;9.10;99.90;;;;;;5024855;28;20452;-75
2021/12/24 14:36:36;;;;;;;14.57;8.80;;;9.10;99.90;;;;;;5033162;28;20553;-75
2021/12/24 14:39:21;;;;;;;16.07;8.80;;;9.10;99.90;;;;;;5024741;28;20441;-74
2021/12/24 14:42:21;;;;;;;10.43;8.43;;;9.10;99.90;;;;;;5030681;28;20532;-75
2021/12/24 14:45:19;;;;;;;10.93;8.20;;;9.10;99.90;;;;;;5035799;28;20440;-74
2021/12/24 14:48:09;;;;;;;10.00;7.60;;;9.10;99.90;;;;;;5028564;28;20460;-74
2021/12/24 14:50:57;;;;;;;10.93;7.93;;;9.10;99.90;;;;;;5029336;28;20930;-74
2021/12/24 14:53:45;;;;;;;9.77;7.50;;;9.10;99.90;;;;;;5032665;28;20782;-75
2021/12/24 14:56:37;;;;;;;10.10;7.80;;;9.00;99.90;;;;;;5023894;28;20545;-75
2021/12/24 14:59:24;;;;;;;10.90;8.20;;;9.10;99.90;;;;;;5029688;28;22319;-75
2021/12/24 15:02:14;;;;;;;8.80;7.33;;;9.10;99.90;;;;;;5033926;28;20450;-76
2021/12/24 15:05:00;;;;;;;12.73;9.10;;;9.00;99.90;;;;;;5033274;28;21101;-76
2021/12/24 15:07:46;;;;;;;10.17;7.73;;;9.00;99.90;;;;;;5032085;28;20522;-76
2021/12/24 15:10:31;;;;;;;11.30;7.83;;;9.00;99.90;;;;;;5022236;28;20419;-75
2021/12/24 15:13:20;;;;;;;13.17;9.40;;;9.00;99.90;;;;;;5034256;28;20794;-76
2021/12/24 15:16:08;;;;;;;18.60;11.00;;;9.00;99.90;;;;;;5032901;28;20452;-74
2021/12/24 15:18:56;;;;;;;43.47;18.57;;;9.10;99.90;;;;;;5035442;28;21004;-76
2021/12/24 15:21:41;;;;;;;58.42;25.25;;;9.00;99.90;;;;;;5027560;28;20476;-76
2021/12/24 15:24:26;;;;;;;86.63;32.83;;;9.10;99.90;;;;;;5030673;28;20209;-76
2021/12/24 15:27:12;;;;;;;50.03;22.77;;;9.10;99.90;;;;;;5023608;28;21068;-76
2021/12/24 15:29:58;;;;;;;12.37;8.17;;;9.10;99.90;;;;;;5025710;28;20563;-75
2021/12/24 15:32:45;;;;;;;12.43;9.13;;;9.10;99.90;;;;;;5025413;28;20587;-76
2021/12/24 15:35:32;;;;;;;11.93;7.80;;;9.10;99.90;;;;;;5028615;28;20411;-76
2021/12/24 15:38:17;;;;;;;10.20;7.20;;;9.00;99.90;;;;;;5036286;28;20471;-77
2021/12/24 15:41:04;;;;;;;11.70;8.50;;;9.10;99.90;;;;;;5027574;28;20476;-76
2021/12/24 15:43:50;;;;;;;11.47;7.30;;;9.00;99.90;;;;;;5024005;28;20436;-74
2021/12/24 15:46:36;;;;;;;9.50;7.30;;;9.00;99.90;;;;;;5028816;28;20479;-76
2021/12/24 15:49:23;;;;;;;10.13;8.37;;;9.10;99.90;;;;;;5025606;28;20411;-77
2021/12/24 15:52:09;;;;;;;10.27;8.10;;;9.10;99.90;;;;;;5022151;28;21145;-76
2021/12/24 15:54:55;;;;;;;11.83;8.17;;;9.00;99.90;;;;;;5028790;28;20429;-77
2021/12/24 15:57:41;;;;;;;8.97;7.40;;;9.00;99.90;;;;;;5032686;28;20479;-77
2021/12/24 16:00:26;;;;;;;11.90;7.60;;;9.10;99.90;;;;;;5038565;28;20486;-77
2021/12/24 16:03:12;;;;;;;7.47;6.40;;;9.10;99.90;;;;;;5033774;28;20441;-77